Time;durP1;ratioP1;P1;durP2;ratioP2;P2;SDS_P1;SDS_P2;PMS_P1;PMS_P2;Temp;Humidity;BMP_temperature;BMP_pressure;BME280_temperature;BME280_humidity;BME280_pressure;Samples;Min_cycle;Max_cycle;Signal;HPM_P1;HPM_P2
2024/01/25 00:00:47;;;;;;;0.10;0.10;;;;;;;;;;5037220;28;20240;-75
2024/01/25 00:03:14;;;;;;;0.10;0.10;;;;;;;;;;5055152;28;20205;-75
2024/01/25 00:05:41;;;;;;;0.10;0.10;;;;;;;;;;5037329;28;20252;-75
2024/01/25 00:08:07;;;;;;;0.10;0.10;;;;;;;;;;5057961;28;20235;-75
2024/01/25 00:10:34;;;;;;;0.10;0.10;;;;;;;;;;5040562;28;20241;-75
2024/01/25 00:13:01;;;;;;;0.10;0.10;;;;;;;;;;5059874;28;20459;-75
2024/01/25 00:15:27;;;;;;;0.10;0.10;;;;;;;;;;5039974;28;20253;-75
2024/01/25 00:17:54;;;;;;;0.10;0.10;;;;;;;;;;5060600;28;20409;-75
2024/01/25 00:20:22;;;;;;;0.10;0.10;;;;;;;;;;5038909;28;20205;-75
2024/01/25 00:22:48;;;;;;;0.10;0.10;;;;;;;;;;5061448;28;20280;-75
2024/01/25 00:25:14;;;;;;;0.10;0.10;;;;;;;;;;5037850;28;20243;-74
2024/01/25 00:27:41;;;;;;;0.20;0.20;;;;;;;;;;5062010;28;20242;-75
2024/01/25 00:30:08;;;;;;;0.10;0.10;;;;;;;;;;5046987;28;20205;-75
2024/01/25 00:32:34;;;;;;;0.10;0.10;;;;;;;;;;5035925;28;20277;-75
2024/01/25 00:35:01;;;;;;;0.10;0.10;;;;;;;;;;5046993;28;20212;-75
2024/01/25 00:37:29;;;;;;;0.17;0.17;;;;;;;;;;5052528;28;20279;-75
2024/01/25 00:39:55;;;;;;;0.10;0.10;;;;;;;;;;5046978;28;20197;-75
2024/01/25 00:42:22;;;;;;;0.17;0.17;;;;;;;;;;5052620;28;20262;-75
2024/01/25 00:44:49;;;;;;;0.10;0.10;;;;;;;;;;5047159;28;20402;-75
2024/01/25 00:47:16;;;;;;;0.10;0.10;;;;;;;;;;5052494;28;20301;-75
2024/01/25 00:49:42;;;;;;;0.10;0.10;;;;;;;;;;5047022;28;20277;-75
2024/01/25 00:52:09;;;;;;;0.20;0.20;;;;;;;;;;5052241;28;20257;-76
2024/01/25 00:54:40;;;;;;;0.10;0.10;;;;;;;;;;5046601;28;20276;-76
2024/01/25 00:57:07;;;;;;;0.10;0.10;;;;;;;;;;5051965;28;20485;-75
2024/01/25 00:59:34;;;;;;;0.10;0.10;;;;;;;;;;5046882;28;20205;-76
2024/01/25 01:02:02;;;;;;;0.10;0.10;;;;;;;;;;5051123;28;20304;-76
2024/01/25 01:04:29;;;;;;;0.10;0.10;;;;;;;;;;5047434;28;20462;-75
2024/01/25 01:06:55;;;;;;;0.10;0.10;;;;;;;;;;5050272;28;20309;-75
2024/01/25 01:09:22;;;;;;;0.13;0.13;;;;;;;;;;5047872;28;20209;-75
2024/01/25 01:11:50;;;;;;;0.10;0.10;;;;;;;;;;5049231;28;20300;-75
2024/01/25 01:14:16;;;;;;;0.10;0.10;;;;;;;;;;5048937;28;20252;-76
2024/01/25 01:16:43;;;;;;;0.13;0.13;;;;;;;;;;5048578;28;20241;-76
2024/01/25 01:19:09;;;;;;;0.13;0.13;;;;;;;;;;5048964;28;20297;-75
2024/01/25 01:21:35;;;;;;;0.13;0.13;;;;;;;;;;5047544;28;20272;-76
2024/01/25 01:24:02;;;;;;;0.10;0.10;;;;;;;;;;5050318;28;20204;-75
2024/01/25 01:26:28;;;;;;;0.20;0.20;;;;;;;;;;5046261;28;20315;-75
2024/01/25 01:28:56;;;;;;;0.10;0.10;;;;;;;;;;5051233;28;20204;-75
2024/01/25 01:31:22;;;;;;;0.10;0.10;;;;;;;;;;5045545;28;20240;-76
2024/01/25 01:33:49;;;;;;;0.10;0.10;;;;;;;;;;5051833;28;20272;-75
2024/01/25 01:36:15;;;;;;;0.10;0.10;;;;;;;;;;5044568;28;20312;-76
2024/01/25 01:38:41;;;;;;;0.20;0.20;;;;;;;;;;5052864;28;20225;-76
2024/01/25 01:41:10;;;;;;;0.10;0.10;;;;;;;;;;5043610;28;20256;-76
2024/01/25 01:43:36;;;;;;;0.10;0.10;;;;;;;;;;5053491;28;20216;-76
2024/01/25 01:46:07;;;;;;;0.20;0.20;;;;;;;;;;5042722;28;20248;-75
2024/01/25 01:48:34;;;;;;;0.10;0.10;;;;;;;;;;5053848;28;20278;-76
2024/01/25 01:51:00;;;;;;;0.10;0.10;;;;;;;;;;5042511;28;20241;-76
2024/01/25 01:53:27;;;;;;;0.10;0.10;;;;;;;;;;5054505;28;20211;-76
2024/01/25 01:55:53;;;;;;;0.10;0.10;;;;;;;;;;5041752;28;20303;-75
2024/01/25 01:58:21;;;;;;;0.20;0.20;;;;;;;;;;5055363;28;20560;-76
2024/01/25 02:00:49;;;;;;;0.10;0.10;;;;;;;;;;5040299;28;20289;-75
2024/01/25 02:03:16;;;;;;;0.10;0.10;;;;;;;;;;5056010;28;20206;-76
2024/01/25 02:05:43;;;;;;;0.10;0.10;;;;;;;;;;5039833;28;20251;-76
2024/01/25 02:08:10;;;;;;;0.10;0.10;;;;;;;;;;5056417;28;20277;-76
2024/01/25 02:10:36;;;;;;;0.10;0.10;;;;;;;;;;5038735;28;20262;-76
2024/01/25 02:13:02;;;;;;;0.10;0.10;;;;;;;;;;5057301;28;20196;-75
2024/01/25 02:15:29;;;;;;;0.10;0.10;;;;;;;;;;5037804;28;20281;-76
2024/01/25 02:17:56;;;;;;;0.10;0.10;;;;;;;;;;5058361;28;20468;-76
2024/01/25 02:20:24;;;;;;;0.10;0.10;;;;;;;;;;5037069;28;20204;-76
2024/01/25 02:22:52;;;;;;;0.10;0.10;;;;;;;;;;5058897;28;20209;-75
2024/01/25 02:25:18;;;;;;;0.10;0.10;;;;;;;;;;5036348;28;20236;-75
2024/01/25 02:27:44;;;;;;;0.13;0.13;;;;;;;;;;5059426;28;20385;-76
2024/01/25 02:30:11;;;;;;;0.10;0.10;;;;;;;;;;5034575;28;20375;-75
2024/01/25 02:32:37;;;;;;;0.10;0.10;;;;;;;;;;5059712;28;20244;-76
2024/01/25 02:35:04;;;;;;;0.13;0.13;;;;;;;;;;5044996;28;20207;-75
2024/01/25 02:37:30;;;;;;;0.10;0.10;;;;;;;;;;5050323;28;20612;-75
2024/01/25 02:39:58;;;;;;;0.10;0.10;;;;;;;;;;5044924;28;20399;-75
2024/01/25 02:42:24;;;;;;;0.10;0.10;;;;;;;;;;5050426;28;20258;-76
2024/01/25 02:44:51;;;;;;;0.10;0.10;;;;;;;;;;5044651;28;20238;-75
2024/01/25 02:47:17;;;;;;;0.10;0.10;;;;;;;;;;5050404;28;20525;-75
2024/01/25 02:49:43;;;;;;;0.10;0.10;;;;;;;;;;5044477;28;20216;-75
2024/01/25 02:52:10;;;;;;;0.10;0.10;;;;;;;;;;5050104;28;20247;-75
2024/01/25 02:54:37;;;;;;;0.10;0.10;;;;;;;;;;5044764;28;20431;-75
2024/01/25 02:57:05;;;;;;;0.10;0.10;;;;;;;;;;5049304;28;20239;-75
2024/01/25 02:59:31;;;;;;;0.20;0.20;;;;;;;;;;5044887;28;20225;-75
2024/01/25 03:01:58;;;;;;;0.10;0.10;;;;;;;;;;5048502;28;20324;-75
2024/01/25 03:04:24;;;;;;;0.10;0.10;;;;;;;;;;5045466;28;20249;-75
2024/01/25 03:06:51;;;;;;;0.10;0.10;;;;;;;;;;5047286;28;20567;-75
2024/01/25 03:09:17;;;;;;;0.10;0.10;;;;;;;;;;5046333;28;20205;-76
2024/01/25 03:11:44;;;;;;;0.10;0.10;;;;;;;;;;5046422;28;20315;-75
2024/01/25 03:14:12;;;;;;;0.20;0.20;;;;;;;;;;5047280;28;20236;-76
2024/01/25 03:16:38;;;;;;;0.10;0.10;;;;;;;;;;5045701;28;20239;-75
2024/01/25 03:19:05;;;;;;;0.10;0.10;;;;;;;;;;5047671;28;20228;-76
2024/01/25 03:21:31;;;;;;;0.10;0.10;;;;;;;;;;5044682;28;20569;-76
2024/01/25 03:23:58;;;;;;;0.10;0.10;;;;;;;;;;5048983;28;20240;-75
2024/01/25 03:26:24;;;;;;;0.10;0.10;;;;;;;;;;5043480;28;20245;-76
2024/01/25 03:28:50;;;;;;;0.10;0.10;;;;;;;;;;5049948;28;20395;-75
2024/01/25 03:31:18;;;;;;;0.10;0.10;;;;;;;;;;5042731;28;20485;-75
2024/01/25 03:33:44;;;;;;;0.10;0.10;;;;;;;;;;5050500;28;20235;-75
2024/01/25 03:36:14;;;;;;;0.10;0.10;;;;;;;;;;5041686;28;20239;-76
2024/01/25 03:38:40;;;;;;;0.10;0.10;;;;;;;;;;5050826;28;20229;-75
2024/01/25 03:41:08;;;;;;;0.10;0.10;;;;;;;;;;5041195;28;20257;-76
2024/01/25 03:43:34;;;;;;;0.10;0.10;;;;;;;;;;5051520;28;20364;-75
2024/01/25 03:46:00;;;;;;;0.10;0.10;;;;;;;;;;5040439;28;20239;-75
2024/01/25 03:48:28;;;;;;;0.10;0.10;;;;;;;;;;5052599;28;20234;-75
2024/01/25 03:50:56;;;;;;;0.10;0.10;;;;;;;;;;5039539;28;20569;-76
2024/01/25 03:53:22;;;;;;;0.10;0.10;;;;;;;;;;5052949;28;20228;-75
2024/01/25 03:55:49;;;;;;;0.10;0.10;;;;;;;;;;5038815;28;20503;-75
2024/01/25 03:58:15;;;;;;;0.10;0.10;;;;;;;;;;5053786;28;20224;-76
2024/01/25 04:00:42;;;;;;;0.10;0.10;;;;;;;;;;5037656;28;20305;-76
2024/01/25 04:03:08;;;;;;;0.10;0.10;;;;;;;;;;5054591;28;20231;-75
2024/01/25 04:05:36;;;;;;;0.10;0.10;;;;;;;;;;5036703;28;20442;-75
2024/01/25 04:08:03;;;;;;;0.10;0.10;;;;;;;;;;5055674;28;20208;-75
2024/01/25 04:10:29;;;;;;;0.10;0.10;;;;;;;;;;5035953;28;20291;-75
2024/01/25 04:12:55;;;;;;;0.10;0.10;;;;;;;;;;5056244;28;20235;-75
2024/01/25 04:15:22;;;;;;;0.10;0.10;;;;;;;;;;5035099;28;20271;-75
2024/01/25 04:17:48;;;;;;;0.10;0.10;;;;;;;;;;5057119;28;20211;-75
2024/01/25 04:20:18;;;;;;;0.10;0.10;;;;;;;;;;5033802;28;20228;-75
2024/01/25 04:22:46;;;;;;;0.10;0.10;;;;;;;;;;5057760;28;20234;-75
2024/01/25 04:25:12;;;;;;;0.10;0.10;;;;;;;;;;5033514;28;20202;-76
2024/01/25 04:27:39;;;;;;;0.20;0.20;;;;;;;;;;5058195;28;20236;-75
2024/01/25 04:30:06;;;;;;;0.10;0.10;;;;;;;;;;5043114;28;20201;-75
2024/01/25 04:32:32;;;;;;;0.10;0.10;;;;;;;;;;5048702;28;20240;-75
2024/01/25 04:34:59;;;;;;;0.20;0.20;;;;;;;;;;5043392;28;20375;-76
2024/01/25 04:37:25;;;;;;;0.20;0.20;;;;;;;;;;5048674;28;20262;-75
2024/01/25 04:39:53;;;;;;;0.10;0.10;;;;;;;;;;5043326;28;20276;-75
2024/01/25 04:42:19;;;;;;;0.10;0.10;;;;;;;;;;5048664;28;20408;-76
2024/01/25 04:44:46;;;;;;;0.10;0.10;;;;;;;;;;5043154;28;20204;-75
2024/01/25 04:47:12;;;;;;;0.10;0.10;;;;;;;;;;5048677;28;20245;-75
2024/01/25 04:49:38;;;;;;;0.20;0.20;;;;;;;;;;5043004;28;20209;-76
2024/01/25 04:52:05;;;;;;;0.10;0.10;;;;;;;;;;5047748;28;20303;-75
2024/01/25 04:54:32;;;;;;;0.20;0.20;;;;;;;;;;5045470;28;20276;-76
2024/01/25 04:56:59;;;;;;;0.10;0.10;;;;;;;;;;5049986;28;20251;-75
2024/01/25 04:59:26;;;;;;;0.10;0.10;;;;;;;;;;5048520;28;20420;-75
2024/01/25 05:01:55;;;;;;;0.20;0.20;;;;;;;;;;5049843;28;20244;-75
2024/01/25 05:04:21;;;;;;;0.10;0.10;;;;;;;;;;5048546;28;20205;-76
2024/01/25 05:06:47;;;;;;;0.10;0.10;;;;;;;;;;5047863;28;20240;-75
2024/01/25 05:09:14;;;;;;;0.10;0.10;;;;;;;;;;5050126;28;20201;-75
2024/01/25 05:11:40;;;;;;;0.20;0.20;;;;;;;;;;5048184;28;20252;-75
2024/01/25 05:14:08;;;;;;;0.17;0.17;;;;;;;;;;5050056;28;20457;-75
2024/01/25 05:16:35;;;;;;;0.10;0.10;;;;;;;;;;5047447;28;20257;-75
2024/01/25 05:19:01;;;;;;;0.10;0.10;;;;;;;;;;5050590;28;20228;-75
2024/01/25 05:21:27;;;;;;;0.10;0.10;;;;;;;;;;5046097;28;20246;-75
2024/01/25 05:23:54;;;;;;;0.20;0.20;;;;;;;;;;5051726;28;20280;-76
2024/01/25 05:26:20;;;;;;;0.20;0.20;;;;;;;;;;5045319;28;20251;-75
2024/01/25 05:28:47;;;;;;;0.20;0.20;;;;;;;;;;5052176;28;20232;-74
2024/01/25 05:31:16;;;;;;;0.10;0.10;;;;;;;;;;5044196;28;20253;-75
2024/01/25 05:33:42;;;;;;;0.20;0.20;;;;;;;;;;5052978;28;20236;-75
2024/01/25 05:36:09;;;;;;;0.20;0.20;;;;;;;;;;5043715;28;20239;-76
2024/01/25 05:38:35;;;;;;;0.20;0.20;;;;;;;;;;5053530;28;20216;-75
2024/01/25 05:41:02;;;;;;;0.20;0.20;;;;;;;;;;5042808;28;20239;-75
2024/01/25 05:43:29;;;;;;;0.10;0.10;;;;;;;;;;5054535;28;20208;-76
2024/01/25 05:45:55;;;;;;;0.10;0.10;;;;;;;;;;5041689;28;20338;-75
2024/01/25 05:48:23;;;;;;;0.10;0.10;;;;;;;;;;5055177;28;20281;-76
2024/01/25 05:50:49;;;;;;;0.20;0.20;;;;;;;;;;5040796;28;20254;-75
2024/01/25 05:53:19;;;;;;;0.20;0.20;;;;;;;;;;5055896;28;20244;-74
2024/01/25 05:55:45;;;;;;;0.10;0.10;;;;;;;;;;5040319;28;20240;-75
2024/01/25 05:58:11;;;;;;;0.10;0.10;;;;;;;;;;5056281;28;20215;-76
2024/01/25 06:00:38;;;;;;;0.20;0.20;;;;;;;;;;5038808;28;20539;-75
2024/01/25 06:03:05;;;;;;;0.20;0.20;;;;;;;;;;5057832;28;20205;-75
2024/01/25 06:05:32;;;;;;;0.10;0.10;;;;;;;;;;5037945;28;20240;-75
2024/01/25 06:07:59;;;;;;;0.10;0.10;;;;;;;;;;5058028;28;20379;-76
2024/01/25 06:10:25;;;;;;;0.20;0.20;;;;;;;;;;5037508;28;20428;-75
2024/01/25 06:12:51;;;;;;;0.10;0.10;;;;;;;;;;5058798;28;20212;-75
2024/01/25 06:15:18;;;;;;;0.10;0.10;;;;;;;;;;5036145;28;20212;-76
2024/01/25 06:17:44;;;;;;;0.13;0.13;;;;;;;;;;5059651;28;20248;-76
2024/01/25 06:20:11;;;;;;;0.10;0.10;;;;;;;;;;5035294;28;20261;-75
2024/01/25 06:22:39;;;;;;;0.10;0.10;;;;;;;;;;5060065;28;20481;-76
2024/01/25 06:25:06;;;;;;;0.10;0.10;;;;;;;;;;5045144;28;20226;-76
2024/01/25 06:27:33;;;;;;;0.10;0.10;;;;;;;;;;5050579;28;20243;-75
2024/01/25 06:29:59;;;;;;;0.10;0.10;;;;;;;;;;5045250;28;20441;-75
2024/01/25 06:32:25;;;;;;;0.10;0.10;;;;;;;;;;5050083;28;20239;-76
2024/01/25 06:34:53;;;;;;;0.10;0.10;;;;;;;;;;5045144;28;20394;-75
2024/01/25 06:37:19;;;;;;;0.10;0.10;;;;;;;;;;5050187;28;20270;-75
2024/01/25 06:39:47;;;;;;;0.10;0.10;;;;;;;;;;5044697;28;20255;-75
2024/01/25 06:42:13;;;;;;;0.10;0.10;;;;;;;;;;5050139;28;20304;-76
2024/01/25 06:44:40;;;;;;;0.10;0.10;;;;;;;;;;5044956;28;20428;-76
2024/01/25 06:47:06;;;;;;;0.10;0.10;;;;;;;;;;5049763;28;20246;-76
2024/01/25 06:49:33;;;;;;;0.20;0.20;;;;;;;;;;5045125;28;20272;-76
2024/01/25 06:51:59;;;;;;;0.20;0.20;;;;;;;;;;5048741;28;20243;-75
2024/01/25 06:54:25;;;;;;;0.20;0.20;;;;;;;;;;5045929;28;20205;-75
2024/01/25 06:56:56;;;;;;;0.10;0.10;;;;;;;;;;5047738;28;20486;-75
2024/01/25 06:59:22;;;;;;;0.10;0.10;;;;;;;;;;5046128;28;20220;-75
2024/01/25 07:01:48;;;;;;;0.10;0.10;;;;;;;;;;5047140;28;20299;-75
2024/01/25 07:04:15;;;;;;;0.10;0.10;;;;;;;;;;5047223;28;20534;-75
2024/01/25 07:06:41;;;;;;;0.10;0.10;;;;;;;;;;5046089;28;20258;-75
2024/01/25 07:09:08;;;;;;;0.10;0.10;;;;;;;;;;5048018;28;20429;-76
2024/01/25 07:11:34;;;;;;;0.20;0.20;;;;;;;;;;5044980;28;20240;-76
2024/01/25 07:14:02;;;;;;;0.10;0.10;;;;;;;;;;5048540;28;20199;-75
2024/01/25 07:16:30;;;;;;;0.10;0.10;;;;;;;;;;5043768;28;20299;-76
2024/01/25 07:18:57;;;;;;;0.10;0.10;;;;;;;;;;5048994;28;20241;-75
2024/01/25 07:21:23;;;;;;;0.10;0.10;;;;;;;;;;5043394;28;20271;-75
2024/01/25 07:23:49;;;;;;;0.10;0.10;;;;;;;;;;5050184;28;20431;-76
2024/01/25 07:26:19;;;;;;;0.10;0.10;;;;;;;;;;5042692;28;20442;-76
2024/01/25 07:28:46;;;;;;;0.10;0.10;;;;;;;;;;5050628;28;20447;-75
2024/01/25 07:31:13;;;;;;;0.10;0.10;;;;;;;;;;5041999;28;20236;-75
2024/01/25 07:33:40;;;;;;;0.10;0.10;;;;;;;;;;5051129;28;20208;-75
2024/01/25 07:36:06;;;;;;;0.10;0.10;;;;;;;;;;5041221;28;20245;-76
2024/01/25 07:38:33;;;;;;;0.10;0.10;;;;;;;;;;5051815;28;20260;-75
2024/01/25 07:40:59;;;;;;;0.20;0.20;;;;;;;;;;5040338;28;20264;-76
2024/01/25 07:43:25;;;;;;;0.10;0.10;;;;;;;;;;5052582;28;20212;-76
2024/01/25 07:45:52;;;;;;;0.10;0.10;;;;;;;;;;5039480;28;20254;-75
2024/01/25 07:48:19;;;;;;;0.20;0.20;;;;;;;;;;5053618;28;20207;-75
2024/01/25 07:50:46;;;;;;;0.20;0.20;;;;;;;;;;5038387;28;20312;-75
2024/01/25 07:53:14;;;;;;;0.10;0.10;;;;;;;;;;5054275;28;20211;-75
2024/01/25 07:55:40;;;;;;;0.10;0.10;;;;;;;;;;5037839;28;20248;-76
2024/01/25 07:58:07;;;;;;;0.10;0.10;;;;;;;;;;5054795;28;20243;-76
2024/01/25 08:00:33;;;;;;;0.10;0.10;;;;;;;;;;5036791;28;20240;-76
2024/01/25 08:02:59;;;;;;;0.17;0.17;;;;;;;;;;5055614;28;20213;-76
2024/01/25 08:05:27;;;;;;;0.10;0.10;;;;;;;;;;5035844;28;20263;-76
2024/01/25 08:07:54;;;;;;;0.10;0.10;;;;;;;;;;5056629;28;20237;-76
2024/01/25 08:10:20;;;;;;;0.10;0.10;;;;;;;;;;5034839;28;20233;-75
2024/01/25 08:12:47;;;;;;;0.20;0.20;;;;;;;;;;5057432;28;20268;-81
2024/01/25 08:15:14;;;;;;;0.20;0.20;;;;;;;;;;5033967;28;20208;-80
2024/01/25 08:17:40;;;;;;;0.20;0.20;;;;;;;;;;5058425;28;20434;-82
2024/01/25 08:20:08;;;;;;;0.10;0.10;;;;;;;;;;5043422;28;20233;-78
2024/01/25 08:22:36;;;;;;;0.13;0.13;;;;;;;;;;5032351;28;20251;-78
2024/01/25 08:25:04;;;;;;;0.20;0.20;;;;;;;;;;5043864;28;20276;-77
2024/01/25 08:27:30;;;;;;;0.10;0.10;;;;;;;;;;5048937;28;20236;-77
2024/01/25 08:29:57;;;;;;;0.13;0.13;;;;;;;;;;5046046;28;20237;-77
2024/01/25 08:32:23;;;;;;;0.10;0.10;;;;;;;;;;5052990;28;20414;-77
2024/01/25 08:34:49;;;;;;;0.10;0.10;;;;;;;;;;5047780;28;20232;-77
2024/01/25 08:37:16;;;;;;;0.10;0.10;;;;;;;;;;5053565;28;20241;-77
2024/01/25 08:39:45;;;;;;;0.17;0.17;;;;;;;;;;5047746;28;20297;-77
2024/01/25 08:42:12;;;;;;;0.10;0.10;;;;;;;;;;5052842;28;20542;-74
2024/01/25 08:44:39;;;;;;;0.10;0.10;;;;;;;;;;5048304;28;20206;-77
2024/01/25 08:47:05;;;;;;;0.10;0.10;;;;;;;;;;5053029;28;20248;-77
2024/01/25 08:49:31;;;;;;;0.10;0.10;;;;;;;;;;5048209;28;20211;-77
2024/01/25 08:51:58;;;;;;;0.10;0.10;;;;;;;;;;5052073;28;20315;-77
2024/01/25 08:54:24;;;;;;;0.20;0.20;;;;;;;;;;5046812;28;20200;-77
2024/01/25 08:56:52;;;;;;;0.10;0.10;;;;;;;;;;5051024;28;20546;-77
2024/01/25 08:59:19;;;;;;;0.10;0.10;;;;;;;;;;5050029;28;20272;-77
2024/01/25 09:01:45;;;;;;;0.10;0.10;;;;;;;;;;5050062;28;20276;-78
2024/01/25 09:04:11;;;;;;;0.10;0.10;;;;;;;;;;5050850;28;20229;-77
2024/01/25 09:06:38;;;;;;;0.20;0.20;;;;;;;;;;5049022;28;20244;-77
2024/01/25 09:09:05;;;;;;;0.10;0.10;;;;;;;;;;5051819;28;20231;-77
2024/01/25 09:11:31;;;;;;;0.10;0.10;;;;;;;;;;5047938;28;20241;-76
2024/01/25 09:13:59;;;;;;;0.20;0.20;;;;;;;;;;5052461;28;20227;-76
2024/01/25 09:16:25;;;;;;;0.10;0.10;;;;;;;;;;5047550;28;20244;-76
2024/01/25 09:18:52;;;;;;;0.17;0.17;;;;;;;;;;5053068;28;20451;-76
2024/01/25 09:21:18;;;;;;;0.10;0.10;;;;;;;;;;5046127;28;20460;-76
2024/01/25 09:23:45;;;;;;;0.10;0.10;;;;;;;;;;5054104;28;20216;-77
2024/01/25 09:26:11;;;;;;;0.20;0.20;;;;;;;;;;5045157;28;20256;-76
2024/01/25 09:28:38;;;;;;;0.10;0.10;;;;;;;;;;5054283;28;20405;-76
2024/01/25 09:31:06;;;;;;;0.10;0.10;;;;;;;;;;5044171;28;20244;-77
2024/01/25 09:33:33;;;;;;;0.10;0.10;;;;;;;;;;5055311;28;20209;-76
2024/01/25 09:36:00;;;;;;;0.10;0.10;;;;;;;;;;5043439;28;20270;-76
2024/01/25 09:38:26;;;;;;;0.10;0.10;;;;;;;;;;5055710;28;20238;-76
2024/01/25 09:40:52;;;;;;;0.10;0.10;;;;;;;;;;5042308;28;20237;-76
2024/01/25 09:43:20;;;;;;;0.10;0.10;;;;;;;;;;5056612;28;20206;-76
2024/01/25 09:45:47;;;;;;;0.10;0.10;;;;;;;;;;5041662;28;20248;-76
2024/01/25 09:48:14;;;;;;;0.10;0.10;;;;;;;;;;5057283;28;20280;-76
2024/01/25 09:50:41;;;;;;;0.10;0.10;;;;;;;;;;5040781;28;20253;-76
2024/01/25 09:53:07;;;;;;;0.10;0.10;;;;;;;;;;5057787;28;20505;-76
2024/01/25 09:55:36;;;;;;;0.10;0.10;;;;;;;;;;5039882;28;20260;-76
2024/01/25 09:58:07;;;;;;;0.10;0.10;;;;;;;;;;5058385;28;20242;-75
2024/01/25 10:00:34;;;;;;;0.10;0.10;;;;;;;;;;5039310;28;20253;-75
2024/01/25 10:03:00;;;;;;;0.10;0.10;;;;;;;;;;5058322;28;20206;-76
2024/01/25 10:05:28;;;;;;;0.10;0.10;;;;;;;;;;5038301;28;20223;-75
2024/01/25 10:07:54;;;;;;;0.10;0.10;;;;;;;;;;5059212;28;20311;-76
2024/01/25 10:10:21;;;;;;;0.10;0.10;;;;;;;;;;5037524;28;20211;-75
2024/01/25 10:12:47;;;;;;;0.10;0.10;;;;;;;;;;5059614;28;20372;-75
2024/01/25 10:15:13;;;;;;;0.10;0.10;;;;;;;;;;5036252;28;20207;-75
2024/01/25 10:17:40;;;;;;;0.10;0.10;;;;;;;;;;5060136;28;20206;-75
2024/01/25 10:20:10;;;;;;;0.10;0.10;;;;;;;;;;5045692;28;20246;-75
2024/01/25 10:22:39;;;;;;;0.10;0.10;;;;;;;;;;5034181;28;20518;-75
2024/01/25 10:25:07;;;;;;;0.10;0.10;;;;;;;;;;5045782;28;20396;-75
2024/01/25 10:27:33;;;;;;;0.10;0.10;;;;;;;;;;5034032;28;20437;-75
2024/01/25 10:30:00;;;;;;;0.10;0.10;;;;;;;;;;5045367;28;20212;-75
2024/01/25 10:32:27;;;;;;;0.10;0.10;;;;;;;;;;5050686;28;20262;-76
2024/01/25 10:34:53;;;;;;;0.10;0.10;;;;;;;;;;5045516;28;20212;-76
2024/01/25 10:37:21;;;;;;;0.10;0.10;;;;;;;;;;5051379;28;20240;-77
2024/01/25 10:39:49;;;;;;;0.10;0.10;;;;;;;;;;5045624;28;20269;-77
2024/01/25 10:42:15;;;;;;;0.10;0.10;;;;;;;;;;5051054;28;20259;-77
2024/01/25 10:44:42;;;;;;;0.10;0.10;;;;;;;;;;5045461;28;20239;-80
2024/01/25 10:47:09;;;;;;;0.10;0.10;;;;;;;;;;5050688;28;20237;-77
2024/01/25 10:49:36;;;;;;;0.10;0.10;;;;;;;;;;5045585;28;20490;-78
2024/01/25 10:52:03;;;;;;;0.10;0.10;;;;;;;;;;5049574;28;20582;-79
2024/01/25 10:54:29;;;;;;;0.10;0.10;;;;;;;;;;5046710;28;20237;-78
2024/01/25 10:56:59;;;;;;;0.10;0.10;;;;;;;;;;5049187;28;20241;-77
2024/01/25 10:59:27;;;;;;;0.10;0.10;;;;;;;;;;5046702;28;20585;-76
2024/01/25 11:01:55;;;;;;;0.10;0.10;;;;;;;;;;5048579;28;20240;-76
2024/01/25 11:04:22;;;;;;;0.10;0.10;;;;;;;;;;5046697;28;20388;-77
2024/01/25 11:06:48;;;;;;;0.10;0.10;;;;;;;;;;5047276;28;20586;-77
2024/01/25 11:09:19;;;;;;;0.10;0.10;;;;;;;;;;5047662;28;20397;-77
2024/01/25 11:11:48;;;;;;;0.10;0.10;;;;;;;;;;5047257;28;20243;-77
2024/01/25 11:14:16;;;;;;;0.10;0.10;;;;;;;;;;5047413;28;20214;-77
2024/01/25 11:16:44;;;;;;;0.10;0.10;;;;;;;;;;5047442;28;20242;-78
2024/01/25 11:19:16;;;;;;;0.10;0.10;;;;;;;;;;5047847;28;20205;-78
2024/01/25 11:21:43;;;;;;;0.10;0.10;;;;;;;;;;5046976;28;20244;-78
2024/01/25 11:24:13;;;;;;;0.10;0.10;;;;;;;;;;5048400;28;20206;-78
2024/01/25 11:26:39;;;;;;;0.10;0.10;;;;;;;;;;5046517;28;20376;-78
2024/01/25 11:29:06;;;;;;;0.10;0.10;;;;;;;;;;5048999;28;20209;-78
2024/01/25 11:31:34;;;;;;;0.10;0.10;;;;;;;;;;5045327;28;20525;-78
2024/01/25 11:34:01;;;;;;;0.10;0.10;;;;;;;;;;5049245;28;20249;-78
2024/01/25 11:36:27;;;;;;;0.10;0.10;;;;;;;;;;5045019;28;20240;-78
2024/01/25 11:38:54;;;;;;;0.10;0.10;;;;;;;;;;5049915;28;20198;-78
2024/01/25 11:41:20;;;;;;;0.03;0.03;;;;;;;;;;5043937;28;20464;-77
2024/01/25 11:43:49;;;;;;;0.10;0.10;;;;;;;;;;5050977;28;20200;-78
2024/01/25 11:46:15;;;;;;;0.10;0.10;;;;;;;;;;5043851;28;20240;-78
2024/01/25 11:48:43;;;;;;;0.10;0.10;;;;;;;;;;5051718;28;20207;-78
2024/01/25 11:51:10;;;;;;;0.10;0.10;;;;;;;;;;5043274;28;20255;-78
2024/01/25 11:53:36;;;;;;;0.10;0.10;;;;;;;;;;5052532;28;20905;-78
2024/01/25 11:56:03;;;;;;;0.10;0.10;;;;;;;;;;5042023;28;20239;-78
2024/01/25 11:58:29;;;;;;;0.10;0.10;;;;;;;;;;5053246;28;20238;-78
2024/01/25 12:00:56;;;;;;;0.10;0.10;;;;;;;;;;5040673;28;20254;-78
2024/01/25 12:03:22;;;;;;;0.10;0.10;;;;;;;;;;5053840;28;20415;-78
2024/01/25 12:05:51;;;;;;;0.10;0.10;;;;;;;;;;5039417;28;20241;-77
2024/01/25 12:08:18;;;;;;;0.10;0.10;;;;;;;;;;5053944;28;20211;-78
2024/01/25 12:10:45;;;;;;;0.10;0.10;;;;;;;;;;5038852;28;20247;-78
2024/01/25 12:13:11;;;;;;;0.10;0.10;;;;;;;;;;5054807;28;20402;-78
2024/01/25 12:15:37;;;;;;;0.10;0.10;;;;;;;;;;5037901;28;20298;-77
2024/01/25 12:18:05;;;;;;;0.10;0.10;;;;;;;;;;5055810;28;20277;-78
2024/01/25 12:20:32;;;;;;;0.10;0.10;;;;;;;;;;5037656;28;20242;-78
2024/01/25 12:23:00;;;;;;;0.10;0.10;;;;;;;;;;5057259;28;20206;-78
2024/01/25 12:25:27;;;;;;;0.10;0.10;;;;;;;;;;5036675;28;20207;-79
2024/01/25 12:27:54;;;;;;;0.10;0.10;;;;;;;;;;5057938;28;20239;-78
2024/01/25 12:30:20;;;;;;;0.10;0.10;;;;;;;;;;5035731;28;20266;-78
2024/01/25 12:32:48;;;;;;;0.10;0.10;;;;;;;;;;5058363;28;20214;-78
2024/01/25 12:35:15;;;;;;;0.10;0.10;;;;;;;;;;5035093;28;20244;-78
2024/01/25 12:37:41;;;;;;;0.10;0.10;;;;;;;;;;5058934;28;20206;-78
2024/01/25 12:40:10;;;;;;;0.10;0.10;;;;;;;;;;5044051;28;20228;-78
2024/01/25 12:42:36;;;;;;;0.10;0.10;;;;;;;;;;5032486;28;20234;-78
2024/01/25 12:45:02;;;;;;;0.10;0.10;;;;;;;;;;5044350;28;20228;-77
2024/01/25 12:47:29;;;;;;;0.10;0.10;;;;;;;;;;5049801;28;20312;-77
2024/01/25 12:49:55;;;;;;;0.10;0.10;;;;;;;;;;5044411;28;20278;-78
2024/01/25 12:52:22;;;;;;;0.10;0.10;;;;;;;;;;5049543;28;20243;-77
2024/01/25 12:54:48;;;;;;;0.10;0.10;;;;;;;;;;5044227;28;20318;-78
2024/01/25 12:57:16;;;;;;;0.10;0.10;;;;;;;;;;5049235;28;20302;-78
2024/01/25 12:59:42;;;;;;;0.10;0.10;;;;;;;;;;5043437;28;20230;-78
2024/01/25 13:02:09;;;;;;;0.10;0.10;;;;;;;;;;5049369;28;20241;-78
2024/01/25 13:04:35;;;;;;;0.10;0.10;;;;;;;;;;5043927;28;20516;-78
2024/01/25 13:07:01;;;;;;;0.10;0.10;;;;;;;;;;5047949;28;20494;-78
2024/01/25 13:09:29;;;;;;;0.10;0.10;;;;;;;;;;5044150;28;20199;-78
2024/01/25 13:11:55;;;;;;;0.10;0.10;;;;;;;;;;5047329;28;20238;-77
2024/01/25 13:14:23;;;;;;;0.10;0.10;;;;;;;;;;5045103;28;20281;-77
2024/01/25 13:16:50;;;;;;;0.10;0.10;;;;;;;;;;5049717;28;20428;-75
2024/01/25 13:19:16;;;;;;;0.10;0.10;;;;;;;;;;5048739;28;20209;-75
2024/01/25 13:21:43;;;;;;;0.10;0.10;;;;;;;;;;5048377;28;20598;-75
2024/01/25 13:24:09;;;;;;;0.10;0.10;;;;;;;;;;5049794;28;20205;-75
2024/01/25 13:26:36;;;;;;;0.20;0.20;;;;;;;;;;5047315;28;20241;-75
2024/01/25 13:29:03;;;;;;;0.10;0.10;;;;;;;;;;5050636;28;20216;-75
2024/01/25 13:31:31;;;;;;;0.10;0.10;;;;;;;;;;5047216;28;20232;-76
2024/01/25 13:33:57;;;;;;;0.10;0.10;;;;;;;;;;5051340;28;20276;-76
2024/01/25 13:36:23;;;;;;;0.10;0.10;;;;;;;;;;5046269;28;20283;-76
2024/01/25 13:38:50;;;;;;;0.10;0.10;;;;;;;;;;5052567;28;20213;-76
2024/01/25 13:41:16;;;;;;;0.10;0.10;;;;;;;;;;5045038;28;20303;-76
2024/01/25 13:43:42;;;;;;;0.10;0.10;;;;;;;;;;5052949;28;20448;-76
2024/01/25 13:46:09;;;;;;;0.10;0.10;;;;;;;;;;5044179;28;20243;-75
2024/01/25 13:48:37;;;;;;;0.10;0.10;;;;;;;;;;5053635;28;20211;-76
2024/01/25 13:51:03;;;;;;;0.10;0.10;;;;;;;;;;5043190;28;20238;-76
2024/01/25 13:53:30;;;;;;;0.10;0.10;;;;;;;;;;5054198;28;20384;-77
2024/01/25 13:55:56;;;;;;;0.10;0.10;;;;;;;;;;5042119;28;20239;-76
2024/01/25 13:58:22;;;;;;;0.10;0.10;;;;;;;;;;5055365;28;20454;-77
2024/01/25 14:00:49;;;;;;;0.10;0.10;;;;;;;;;;5041044;28;20240;-76
2024/01/25 14:03:15;;;;;;;0.10;0.10;;;;;;;;;;5055778;28;20239;-76
2024/01/25 14:05:43;;;;;;;0.10;0.10;;;;;;;;;;5039824;28;20258;-77
2024/01/25 14:08:11;;;;;;;0.10;0.10;;;;;;;;;;5056373;28;20254;-76
2024/01/25 14:10:37;;;;;;;0.10;0.10;;;;;;;;;;5039088;28;20248;-75
2024/01/25 14:13:04;;;;;;;0.10;0.10;;;;;;;;;;5057214;28;20500;-76
2024/01/25 14:15:30;;;;;;;0.10;0.10;;;;;;;;;;5038110;28;20277;-76
2024/01/25 14:17:56;;;;;;;0.10;0.10;;;;;;;;;;5058038;28;20246;-76
2024/01/25 14:20:23;;;;;;;0.10;0.10;;;;;;;;;;5037450;28;20511;-75
2024/01/25 14:22:51;;;;;;;0.10;0.10;;;;;;;;;;5058963;28;20228;-76
2024/01/25 14:25:17;;;;;;;0.10;0.10;;;;;;;;;;5036107;28;20231;-76
2024/01/25 14:27:47;;;;;;;0.10;0.10;;;;;;;;;;5059535;28;20295;-75
2024/01/25 14:30:14;;;;;;;0.10;0.10;;;;;;;;;;5035851;28;20534;-76
2024/01/25 14:32:40;;;;;;;0.10;0.10;;;;;;;;;;5060279;28;20245;-76
2024/01/25 14:35:07;;;;;;;0.10;0.10;;;;;;;;;;5044959;28;20239;-76
2024/01/25 14:37:33;;;;;;;0.10;0.10;;;;;;;;;;5050863;28;20310;-75
2024/01/25 14:40:02;;;;;;;0.20;0.20;;;;;;;;;;5044966;28;20246;-76